Terminal Aerodrome Forecast
Issued by NWS

Home | Current Version | Previous Version | Text Only | Print | Product List | Glossary On
Versions: 1 2 3 4 5 6 7 8 9 10 11 12 13 14 15 16 17 18
816
FTAK31 PAJN 291120
TAFAGY
TAF
PAGY 291120Z 2912/3012 VRB06KT P6SM -SHRA BKN045 OVC070
      TEMPO 2912/2916 20010G18KT FEW010 BKN020 OVC045
     FM291600 21015G25KT P6SM -SHRA SCT020 OVC050
     FM300600 21010KT P6SM VCSH BKN050
      AMD LTD TO CLD VIS AND WIND=

USA.gov is the U.S. government's official web portal to all federal, state and local government web resources and services.